createdAt,value
2019-03-08T00:02:08.919Z,0.40
2019-03-08T00:04:37.060Z,0.50
2019-03-08T00:07:05.193Z,0.87
2019-03-08T00:09:33.333Z,0.50
2019-03-08T00:12:01.462Z,0.50
2019-03-08T00:14:29.768Z,0.70
2019-03-08T00:16:57.901Z,0.70
2019-03-08T00:19:26.047Z,0.50
2019-03-08T00:21:54.429Z,0.50
2019-03-08T00:24:22.837Z,0.47
2019-03-08T00:26:51.285Z,0.80
2019-03-08T00:29:19.805Z,0.60
2019-03-08T00:31:48.189Z,0.50
2019-03-08T00:34:16.325Z,0.60
2019-03-08T00:36:44.446Z,0.63
2019-03-08T00:39:12.585Z,0.50
2019-03-08T00:41:40.714Z,0.60
2019-03-08T00:44:09.028Z,0.50
2019-03-08T00:46:37.152Z,0.50
2019-03-08T00:49:05.286Z,0.50
2019-03-08T00:51:33.677Z,0.57
2019-03-08T00:54:01.810Z,0.40
2019-03-08T00:56:30.203Z,0.40
2019-03-08T00:58:58.577Z,0.50
2019-03-08T01:01:26.724Z,0.50
2019-03-08T01:03:54.849Z,0.43
2019-03-08T01:06:23.252Z,0.70
2019-03-08T01:08:51.373Z,0.53
2019-03-08T01:11:19.774Z,0.60
2019-03-08T01:13:48.158Z,0.50
2019-03-08T01:16:16.302Z,0.50
2019-03-08T01:18:44.694Z,0.47
2019-03-08T01:21:12.836Z,0.40
2019-03-08T01:23:40.969Z,0.70
2019-03-08T01:26:09.109Z,0.50
2019-03-08T01:28:37.306Z,0.53
2019-03-08T01:31:05.626Z,0.40
2019-03-08T01:33:33.748Z,0.40
2019-03-08T01:36:01.880Z,0.40
2019-03-08T01:38:30.013Z,0.50
2019-03-08T01:40:58.401Z,0.60
2019-03-08T01:43:27.106Z,0.50
2019-03-08T01:45:55.240Z,0.50
2019-03-08T01:48:23.376Z,0.80
2019-03-08T01:50:51.518Z,0.40
2019-03-08T01:53:19.652Z,0.60
2019-03-08T01:55:48.039Z,0.40
2019-03-08T01:58:16.430Z,0.50
2019-03-08T02:00:44.744Z,0.70
2019-03-08T02:03:12.874Z,0.40
2019-03-08T02:05:41.273Z,0.47
2019-03-08T02:08:09.685Z,0.50
2019-03-08T02:10:37.816Z,0.40
2019-03-08T02:13:06.219Z,0.30
2019-03-08T02:15:34.682Z,0.53
2019-03-08T02:18:02.881Z,0.40
2019-03-08T02:20:31.013Z,0.50
2019-03-08T02:22:59.162Z,0.40
2019-03-08T02:25:27.304Z,0.40
2019-03-08T02:27:55.679Z,0.47
2019-03-08T02:30:24.451Z,0.60
2019-03-08T02:32:52.565Z,0.60
2019-03-08T02:35:20.950Z,0.57
2019-03-08T02:37:49.082Z,0.43
2019-03-08T02:40:30.451Z,0.50
2019-03-08T02:42:59.064Z,0.40
2019-03-08T02:45:27.309Z,0.40
2019-03-08T02:47:55.753Z,0.40
2019-03-08T02:50:23.958Z,0.60
2019-03-08T02:52:52.329Z,0.43
2019-03-08T02:55:20.464Z,0.40
2019-03-08T02:57:48.769Z,0.50
2019-03-08T03:00:17.884Z,0.40
2019-03-08T03:02:46.016Z,0.50
2019-03-08T03:05:14.424Z,0.47
2019-03-08T03:07:42.558Z,0.50
2019-03-08T03:10:12.023Z,0.40
2019-03-08T03:12:40.585Z,0.60
2019-03-08T03:15:12.689Z,0.50
2019-03-08T03:17:40.817Z,0.50
2019-03-08T03:20:10.753Z,0.63
2019-03-08T03:22:38.889Z,0.50
2019-03-08T03:25:08.417Z,0.50
2019-03-08T03:27:36.545Z,0.67
2019-03-08T03:30:06.146Z,0.40
2019-03-08T03:32:34.294Z,0.80
2019-03-08T03:35:02.426Z,0.40
2019-03-08T03:37:30.613Z,0.50
2019-03-08T03:39:58.787Z,0.47
2019-03-08T03:42:26.944Z,0.60
2019-03-08T03:44:55.061Z,0.60
2019-03-08T03:47:23.217Z,0.60
2019-03-08T03:49:51.341Z,0.50
2019-03-08T03:52:19.738Z,0.60
2019-03-08T03:54:47.893Z,0.77
2019-03-08T03:57:16.441Z,0.50
2019-03-08T03:59:44.569Z,0.50
2019-03-08T04:02:12.717Z,0.60
2019-03-08T04:04:40.872Z,0.50
2019-03-08T04:07:09.032Z,0.40
2019-03-08T04:09:37.408Z,0.50
2019-03-08T04:12:05.737Z,0.63
2019-03-08T04:14:33.860Z,0.50
2019-03-08T04:17:02.253Z,0.40
2019-03-08T04:19:30.401Z,0.40
2019-03-08T04:21:58.538Z,0.40
2019-03-08T04:24:26.940Z,0.73
2019-03-08T04:26:55.694Z,0.60
2019-03-08T04:29:23.822Z,0.40
2019-03-08T04:31:51.985Z,0.57
2019-03-08T04:34:20.129Z,0.50
2019-03-08T04:36:48.290Z,0.57
2019-03-08T04:39:16.422Z,0.80
2019-03-08T04:41:45.169Z,0.70
2019-03-08T04:44:13.321Z,0.50
2019-03-08T04:46:41.791Z,1.17
2019-03-08T04:49:10.194Z,0.50
2019-03-08T04:51:38.332Z,0.50
2019-03-08T04:54:06.477Z,0.47
2019-03-08T04:56:34.875Z,0.70
2019-03-08T04:59:02.992Z,0.77
2019-03-08T05:01:31.398Z,0.70
2019-03-08T05:03:59.527Z,0.67
2019-03-08T05:06:27.926Z,0.97
2019-03-08T05:08:56.307Z,0.50
2019-03-08T05:11:24.468Z,0.60
2019-03-08T05:13:52.581Z,0.60
2019-03-08T05:16:20.969Z,0.40
2019-03-08T05:18:49.105Z,0.70
2019-03-08T05:21:17.499Z,0.70
2019-03-08T05:23:45.652Z,0.70
2019-03-08T05:26:13.859Z,0.40
2019-03-08T05:28:42.265Z,1.43
2019-03-08T05:31:10.738Z,0.50
2019-03-08T05:33:39.112Z,0.50
2019-03-08T05:36:07.273Z,0.60
2019-03-08T05:38:35.645Z,0.40
2019-03-08T05:41:04.061Z,0.50
2019-03-08T05:43:32.368Z,0.60
2019-03-08T05:46:00.521Z,0.60
2019-03-08T05:48:28.660Z,0.60
2019-03-08T05:50:57.050Z,0.63
2019-03-08T05:53:25.216Z,0.50
2019-03-08T05:55:53.408Z,0.50
2019-03-08T05:58:21.553Z,0.80
2019-03-08T06:00:49.926Z,0.70
2019-03-08T06:03:18.065Z,0.60
2019-03-08T06:05:46.218Z,0.87
2019-03-08T06:08:14.355Z,0.67
2019-03-08T06:10:42.477Z,0.60
2019-03-08T06:13:10.865Z,0.70
2019-03-08T06:15:39.681Z,0.90
2019-03-08T06:18:07.833Z,0.97
2019-03-08T06:20:36.218Z,0.80
2019-03-08T06:23:04.683Z,0.60
2019-03-08T06:25:33.109Z,0.60
2019-03-08T06:28:01.237Z,0.60
2019-03-08T06:30:29.385Z,0.53
2019-03-08T06:32:57.551Z,0.67
2019-03-08T06:35:25.740Z,0.50
2019-03-08T06:37:53.887Z,0.50
2019-03-08T06:40:22.157Z,0.50
2019-03-08T06:42:50.318Z,0.50
2019-03-08T06:45:18.770Z,0.67
2019-03-08T06:47:47.350Z,0.60
2019-03-08T06:50:15.581Z,0.50
2019-03-08T06:52:43.723Z,0.50
2019-03-08T06:55:12.958Z,0.40
2019-03-08T06:57:41.114Z,0.60
2019-03-08T07:00:12.476Z,0.60
2019-03-08T07:02:41.130Z,0.50
2019-03-08T07:05:09.510Z,0.60
2019-03-08T07:07:37.646Z,0.50
2019-03-08T07:10:06.908Z,0.50
2019-03-08T07:12:35.093Z,0.53
2019-03-08T07:15:03.802Z,0.60
2019-03-08T07:17:32.345Z,0.63
2019-03-08T07:20:08.166Z,0.50
2019-03-08T07:22:44.057Z,0.70
2019-03-08T07:25:30.605Z,0.40
2019-03-08T07:28:06.614Z,0.40
2019-03-08T07:30:36.630Z,0.60
2019-03-08T07:33:06.441Z,0.50
2019-03-08T07:35:36.469Z,0.40
2019-03-08T07:38:06.567Z,0.50
2019-03-08T07:40:45.693Z,0.43
2019-03-08T07:43:30.611Z,0.63
2019-03-08T07:46:06.645Z,0.50
2019-03-08T07:48:48.641Z,0.70
2019-03-08T07:51:18.412Z,0.40
2019-03-08T07:53:54.444Z,0.80
2019-03-08T07:56:33.533Z,0.40
2019-03-08T07:59:19.653Z,0.40
2019-03-08T08:01:49.436Z,0.40
2019-03-08T08:04:22.230Z,0.40
2019-03-08T08:07:00.051Z,0.50
2019-03-08T08:09:32.023Z,0.93
2019-03-08T08:12:01.841Z,0.40
2019-03-08T08:14:40.503Z,0.40
2019-03-08T08:17:25.554Z,0.40
2019-03-08T08:19:58.029Z,0.40
2019-03-08T08:22:30.738Z,0.43
2019-03-08T08:25:06.882Z,0.50
2019-03-08T08:27:42.846Z,0.40
2019-03-08T08:30:13.901Z,0.60
2019-03-08T08:32:49.726Z,0.40
2019-03-08T08:35:25.201Z,0.40
2019-03-08T08:38:07.426Z,0.50
2019-03-08T08:40:52.380Z,0.40
2019-03-08T08:43:40.520Z,0.50
2019-03-08T08:46:19.150Z,0.47
2019-03-08T08:49:05.231Z,0.70
2019-03-08T08:51:53.160Z,0.37
2019-03-08T08:54:31.734Z,0.87
2019-03-08T08:57:07.865Z,0.50
2019-03-08T08:59:46.961Z,0.50
2019-03-08T09:02:23.214Z,0.40
2019-03-08T09:04:56.117Z,0.50
2019-03-08T09:07:32.331Z,0.57
2019-03-08T09:10:08.542Z,0.40
2019-03-08T09:12:38.306Z,0.40
2019-03-08T09:15:12.328Z,0.47
2019-03-08T09:18:00.232Z,0.30
2019-03-08T09:20:33.005Z,0.70
2019-03-08T09:23:05.540Z,0.50
2019-03-08T09:25:35.589Z,0.67
2019-03-08T09:28:17.701Z,0.50
2019-03-08T09:31:04.098Z,0.60
2019-03-08T09:33:34.244Z,0.40
2019-03-08T09:36:16.482Z,0.40
2019-03-08T09:38:55.614Z,0.40
2019-03-08T09:41:28.120Z,0.40
2019-03-08T09:44:04.252Z,0.40
2019-03-08T09:46:40.273Z,0.50
2019-03-08T09:49:18.742Z,0.53
2019-03-08T09:52:05.503Z,0.30
2019-03-08T09:54:37.853Z,0.50
2019-03-08T09:57:10.389Z,0.50
2019-03-08T09:59:56.410Z,0.40
2019-03-08T10:02:26.202Z,0.40
2019-03-08T10:05:12.415Z,0.40
2019-03-08T10:07:42.217Z,0.40
2019-03-08T10:10:14.801Z,0.40
2019-03-08T10:12:44.580Z,0.50
2019-03-08T10:15:32.837Z,0.40
2019-03-08T10:18:14.942Z,0.57
2019-03-08T10:20:44.714Z,0.40
2019-03-08T10:23:29.503Z,0.40
2019-03-08T10:26:14.308Z,0.43
2019-03-08T10:28:44.135Z,0.40
2019-03-08T10:31:22.878Z,0.40
2019-03-08T10:33:52.687Z,0.47
2019-03-08T10:36:25.425Z,0.40
2019-03-08T10:39:01.075Z,0.40
2019-03-08T10:41:39.915Z,0.40
2019-03-08T10:44:12.974Z,0.40
2019-03-08T10:46:53.294Z,0.40
2019-03-08T10:49:29.034Z,0.40
2019-03-08T10:52:17.727Z,0.40
2019-03-08T10:54:45.610Z,0.40
2019-03-08T10:57:24.289Z,0.40
2019-03-08T10:59:57.667Z,0.50
2019-03-08T11:02:27.469Z,0.40
2019-03-08T11:05:00.648Z,0.50
2019-03-08T11:07:33.407Z,0.40
2019-03-08T11:10:05.970Z,0.40
2019-03-08T11:12:52.320Z,0.50
2019-03-08T11:15:40.335Z,0.47
2019-03-08T11:18:10.211Z,0.60
2019-03-08T11:20:55.110Z,0.40
2019-03-08T11:23:27.893Z,0.50
2019-03-08T11:26:14.366Z,0.43
2019-03-08T11:28:59.170Z,0.57
2019-03-08T11:31:28.951Z,0.50
2019-03-08T11:34:15.439Z,0.50
2019-03-08T11:36:45.235Z,0.60
2019-03-08T11:39:22.091Z,0.60
2019-03-08T11:41:58.018Z,0.57
2019-03-08T11:44:30.872Z,0.60
2019-03-08T11:47:00.958Z,0.60
2019-03-08T11:49:34.144Z,0.50
2019-03-08T11:52:16.154Z,0.60
2019-03-08T11:54:51.931Z,0.50
2019-03-08T11:57:40.085Z,0.60
2019-03-08T12:00:11.412Z,0.53
2019-03-08T12:02:56.383Z,0.77
2019-03-08T12:05:35.549Z,1.10
2019-03-08T12:08:20.596Z,0.60
2019-03-08T12:10:57.836Z,0.80
2019-03-08T12:13:33.618Z,0.87
2019-03-08T12:16:09.756Z,0.87
2019-03-08T12:18:42.701Z,0.90
2019-03-08T12:21:15.185Z,0.50
2019-03-08T12:23:45.345Z,0.60
2019-03-08T12:26:15.482Z,0.60
2019-03-08T12:29:03.526Z,0.90
2019-03-08T12:31:36.117Z,0.67
2019-03-08T12:34:05.899Z,0.80
2019-03-08T12:36:35.922Z,0.70
2019-03-08T12:39:13.192Z,0.60
2019-03-08T12:41:48.771Z,0.50
2019-03-08T12:44:33.652Z,0.40
2019-03-08T12:47:12.510Z,0.47
2019-03-08T12:49:45.034Z,1.33
2019-03-08T12:52:24.277Z,0.60
2019-03-08T12:54:56.996Z,0.60
2019-03-08T12:57:33.068Z,0.73
2019-03-08T13:00:02.855Z,0.50
2019-03-08T13:02:35.757Z,1.00
2019-03-08T13:05:20.653Z,0.50
2019-03-08T13:08:07.291Z,0.80
2019-03-08T13:10:35.794Z,0.80
2019-03-08T13:13:03.924Z,0.70
2019-03-08T13:15:32.326Z,0.60
2019-03-08T13:18:00.461Z,0.50
2019-03-08T13:20:28.611Z,0.70
2019-03-08T13:22:56.747Z,0.50
2019-03-08T13:25:24.899Z,0.63
2019-03-08T13:27:53.045Z,0.50
2019-03-08T13:30:24.933Z,0.40
2019-03-08T13:32:53.606Z,0.60
2019-03-08T13:35:22.105Z,0.60
2019-03-08T13:37:50.522Z,0.50
2019-03-08T13:40:18.978Z,0.50
2019-03-08T13:42:47.628Z,0.53
2019-03-08T13:45:19.418Z,0.60
2019-03-08T13:47:47.849Z,0.60
2019-03-08T13:50:16.354Z,0.60
2019-03-08T13:52:45.285Z,0.60
2019-03-08T13:55:15.942Z,0.70
2019-03-08T13:57:44.361Z,0.60
2019-03-08T14:00:15.843Z,0.60
2019-03-08T14:02:44.351Z,0.53
2019-03-08T14:05:13.297Z,0.50
2019-03-08T14:07:41.835Z,0.63
2019-03-08T14:10:15.710Z,0.60
2019-03-08T14:12:44.202Z,0.80
2019-03-08T14:15:14.779Z,0.70
2019-03-08T14:17:43.310Z,0.50
2019-03-08T14:20:23.018Z,0.70
2019-03-08T14:22:51.730Z,0.70
2019-03-08T14:25:20.449Z,0.60
2019-03-08T14:27:48.879Z,0.60
2019-03-08T14:30:26.834Z,0.50
2019-03-08T14:32:57.978Z,0.60
2019-03-08T14:35:26.128Z,0.80
2019-03-08T14:37:57.109Z,0.87
2019-03-08T14:40:29.715Z,0.60
2019-03-08T14:42:59.877Z,0.50
2019-03-08T14:45:35.875Z,0.97
2019-03-08T14:48:06.001Z,0.80
2019-03-08T14:50:35.520Z,0.60
2019-03-08T14:53:04.846Z,0.70
2019-03-08T14:55:33.723Z,0.70
2019-03-08T14:58:02.196Z,0.70
2019-03-08T15:00:30.674Z,0.60
2019-03-08T15:02:59.101Z,0.70
2019-03-08T15:05:27.796Z,0.70
2019-03-08T15:07:56.564Z,0.60
2019-03-08T15:10:25.042Z,0.70
2019-03-08T15:12:53.461Z,0.63
2019-03-08T15:15:22.207Z,1.00
2019-03-08T15:17:53.644Z,0.83
2019-03-08T15:20:20.807Z,0.90
2019-03-08T15:22:49.515Z,0.67
2019-03-08T15:25:18.019Z,0.60
2019-03-08T15:27:46.571Z,0.70
2019-03-08T15:30:18.897Z,0.70
2019-03-08T15:32:47.457Z,0.83
2019-03-08T15:35:17.134Z,0.53
2019-03-08T15:37:45.911Z,0.60
2019-03-08T15:40:20.189Z,0.90
2019-03-08T15:42:48.891Z,0.50
2019-03-08T15:45:17.659Z,1.10
2019-03-08T15:47:46.401Z,0.50
2019-03-08T15:50:19.194Z,1.00
2019-03-08T15:52:47.685Z,0.60
2019-03-08T15:55:16.494Z,0.70
2019-03-08T15:57:45.289Z,0.70
2019-03-08T16:00:24.316Z,1.30
2019-03-08T16:02:54.626Z,0.73
2019-03-08T16:05:23.833Z,0.90
2019-03-08T16:07:53.232Z,0.77
2019-03-08T16:10:22.944Z,1.50
2019-03-08T16:12:51.397Z,2.33
2019-03-08T16:15:20.026Z,1.10
2019-03-08T16:17:48.686Z,1.70
2019-03-08T16:20:19.134Z,1.60
2019-03-08T16:22:47.577Z,1.90
2019-03-08T16:25:17.330Z,0.93
2019-03-08T16:27:46.052Z,1.10
2019-03-08T16:30:25.096Z,1.70
2019-03-08T16:32:56.273Z,0.93
2019-03-08T16:35:26.298Z,1.93
2019-03-08T16:38:11.214Z,1.20
2019-03-08T16:40:41.385Z,1.27
2019-03-08T16:43:20.424Z,1.13
2019-03-08T16:45:54.799Z,2.17
2019-03-08T16:48:25.000Z,0.80
2019-03-08T16:50:56.118Z,1.50
2019-03-08T16:53:35.493Z,1.13
2019-03-08T16:56:07.247Z,1.23
2019-03-08T16:58:40.219Z,1.70
2019-03-08T17:01:13.312Z,1.30
2019-03-08T17:04:01.439Z,1.20
2019-03-08T17:06:46.605Z,1.20
2019-03-08T17:09:22.494Z,2.10
2019-03-08T17:12:08.833Z,1.30
2019-03-08T17:14:38.894Z,0.93
2019-03-08T17:17:25.402Z,1.00
2019-03-08T17:20:11.635Z,0.90
2019-03-08T17:22:41.990Z,0.90
2019-03-08T17:25:12.757Z,0.80
2019-03-08T17:27:45.894Z,1.07
2019-03-08T17:30:18.553Z,0.63
2019-03-08T17:32:57.583Z,0.80
2019-03-08T17:35:39.823Z,1.13
2019-03-08T17:38:12.609Z,1.83
2019-03-08T17:40:58.994Z,0.80
2019-03-08T17:43:29.293Z,0.83
2019-03-08T17:46:08.239Z,1.20
2019-03-08T17:48:44.243Z,1.10
2019-03-08T17:51:14.729Z,1.40
2019-03-08T17:53:48.013Z,1.00
2019-03-08T17:56:21.074Z,0.90
2019-03-08T17:59:02.929Z,0.90
2019-03-08T18:01:33.018Z,0.80
2019-03-08T18:04:15.365Z,1.17
2019-03-08T18:06:51.898Z,1.00
2019-03-08T18:09:31.097Z,0.80
2019-03-08T18:12:04.155Z,1.10
2019-03-08T18:14:37.210Z,1.27
2019-03-08T18:17:10.045Z,0.83
2019-03-08T18:19:46.281Z,1.43
2019-03-08T18:22:16.364Z,0.77
2019-03-08T18:24:52.019Z,0.70
2019-03-08T18:27:28.087Z,1.00
2019-03-08T18:30:10.173Z,0.80
2019-03-08T18:32:40.226Z,0.97
2019-03-08T18:35:13.464Z,1.30
2019-03-08T18:37:44.095Z,1.60
2019-03-08T18:40:14.738Z,0.90
2019-03-08T18:42:51.125Z,1.00
2019-03-08T18:45:26.984Z,1.05
2019-03-08T18:47:57.383Z,1.13
2019-03-08T18:50:27.463Z,1.23
2019-03-08T18:53:03.540Z,1.00
2019-03-08T18:55:33.645Z,1.00
2019-03-08T18:58:06.604Z,1.60
2019-03-08T19:00:39.185Z,1.70
2019-03-08T19:03:21.244Z,1.10
2019-03-08T19:05:51.350Z,1.60
2019-03-08T19:08:21.401Z,0.83
2019-03-08T19:10:57.287Z,1.00
2019-03-08T19:13:38.966Z,1.00
2019-03-08T19:16:12.157Z,1.30
2019-03-08T19:18:45.183Z,1.03
2019-03-08T19:21:21.410Z,0.70
2019-03-08T19:23:57.193Z,1.10
2019-03-08T19:26:39.435Z,0.97
2019-03-08T19:29:09.583Z,0.98
2019-03-08T19:31:42.753Z,1.30
2019-03-08T19:34:25.155Z,1.83
2019-03-08T19:37:11.661Z,1.10
2019-03-08T19:39:44.225Z,0.83
2019-03-08T19:42:14.338Z,1.10
2019-03-08T19:44:44.412Z,0.90
2019-03-08T19:47:14.785Z,1.00
2019-03-08T19:49:44.914Z,1.20
2019-03-08T19:52:18.367Z,1.33
2019-03-08T19:54:51.126Z,1.57
2019-03-08T19:57:37.167Z,3.80
2019-03-08T20:00:19.065Z,1.67
2019-03-08T20:02:49.134Z,1.00
2019-03-08T20:05:22.207Z,0.70
2019-03-08T20:08:01.886Z,0.90
2019-03-08T20:10:31.977Z,1.07
2019-03-08T20:13:18.191Z,0.70
2019-03-08T20:15:50.954Z,0.90
2019-03-08T20:18:24.441Z,0.80
2019-03-08T20:20:54.532Z,0.60
2019-03-08T20:23:30.372Z,0.70
2019-03-08T20:26:15.965Z,0.70
2019-03-08T20:28:48.869Z,0.67
2019-03-08T20:31:25.228Z,0.80
2019-03-08T20:34:07.178Z,0.60
2019-03-08T20:36:37.323Z,1.03
2019-03-08T20:39:08.603Z,1.57
2019-03-08T20:41:53.912Z,1.43
2019-03-08T20:44:39.647Z,1.57
2019-03-08T20:47:12.501Z,1.63
2019-03-08T20:49:41.419Z,1.47
2019-03-08T20:52:09.949Z,1.37
2019-03-08T20:54:38.374Z,0.83
2019-03-08T20:57:06.844Z,0.80
2019-03-08T20:59:35.321Z,0.90
2019-03-08T21:02:03.905Z,0.93
2019-03-08T21:04:32.338Z,0.80
2019-03-08T21:07:00.750Z,0.77
2019-03-08T21:09:29.244Z,0.90
2019-03-08T21:11:57.896Z,0.80
2019-03-08T21:14:26.309Z,2.10
2019-03-08T21:16:54.728Z,1.60
2019-03-08T21:19:23.137Z,3.13
2019-03-08T21:21:51.636Z,3.70
2019-03-08T21:24:20.105Z,4.40
2019-03-08T21:26:48.560Z,2.40
2019-03-08T21:29:17.250Z,1.50
2019-03-08T21:31:45.964Z,3.90
2019-03-08T21:34:14.692Z,2.30
2019-03-08T21:36:43.373Z,1.70
2019-03-08T21:39:12.016Z,1.87
2019-03-08T21:41:40.523Z,2.00
2019-03-08T21:44:09.077Z,1.23
2019-03-08T21:46:37.586Z,1.12
2019-03-08T21:49:06.272Z,1.17
2019-03-08T21:51:34.752Z,0.70
2019-03-08T21:54:03.518Z,0.70
2019-03-08T21:56:32.017Z,0.85
2019-03-08T21:59:00.688Z,0.73
2019-03-08T22:01:29.204Z,0.77
2019-03-08T22:03:59.629Z,0.63
2019-03-08T22:06:28.105Z,0.80
2019-03-08T22:08:58.174Z,1.03
2019-03-08T22:11:28.276Z,1.07
2019-03-08T22:13:56.678Z,0.70
2019-03-08T22:16:25.301Z,0.90
2019-03-08T22:18:54.004Z,0.70
2019-03-08T22:21:22.461Z,0.60
2019-03-08T22:23:50.901Z,1.10
2019-03-08T22:26:19.569Z,1.07
2019-03-08T22:28:48.517Z,1.00
2019-03-08T22:31:16.967Z,0.70
2019-03-08T22:33:45.633Z,0.83
2019-03-08T22:36:14.045Z,0.60
2019-03-08T22:38:42.703Z,0.60
2019-03-08T22:41:11.122Z,0.70
2019-03-08T22:43:39.561Z,0.80
2019-03-08T22:46:08.005Z,0.70
2019-03-08T22:48:36.439Z,0.60
2019-03-08T22:51:05.069Z,0.50
2019-03-08T22:53:33.553Z,0.70
2019-03-08T22:56:02.494Z,0.80
2019-03-08T22:58:31.153Z,0.67
2019-03-08T23:01:02.892Z,0.63
2019-03-08T23:03:31.820Z,0.70
2019-03-08T23:06:00.354Z,0.57
2019-03-08T23:08:29.402Z,0.60
2019-03-08T23:10:57.922Z,0.87
2019-03-08T23:13:26.397Z,1.00
2019-03-08T23:15:54.840Z,0.90
2019-03-08T23:18:23.479Z,0.77
2019-03-08T23:20:53.633Z,0.70
2019-03-08T23:23:22.262Z,1.13
2019-03-08T23:25:50.970Z,0.83
2019-03-08T23:28:30.213Z,0.83
2019-03-08T23:31:00.314Z,0.63
2019-03-08T23:33:28.745Z,0.57
2019-03-08T23:35:57.254Z,0.63
2019-03-08T23:38:25.697Z,0.60
2019-03-08T23:40:54.108Z,0.87
2019-03-08T23:43:22.525Z,0.70
2019-03-08T23:45:51.466Z,0.60
2019-03-08T23:48:19.880Z,0.60
2019-03-08T23:50:48.289Z,0.70
2019-03-08T23:53:16.733Z,0.60
2019-03-08T23:55:45.202Z,0.50
2019-03-08T23:58:13.671Z,0.50
